sensor_id;sensor_type;location;lat;lon;timestamp;temperature;humidity
43099;DHT22;28715;51.988;6.020;2023-06-14T00:01:26;20.90;60.00
43099;DHT22;28715;51.988;6.020;2023-06-14T00:06:34;20.80;59.90
43099;DHT22;28715;51.988;6.020;2023-06-14T00:09:04;20.80;60.60
43099;DHT22;28715;51.988;6.020;2023-06-14T00:11:31;20.80;61.00
43099;DHT22;28715;51.988;6.020;2023-06-14T00:13:57;20.80;60.70
43099;DHT22;28715;51.988;6.020;2023-06-14T00:16:35;20.80;60.70
43099;DHT22;28715;51.988;6.020;2023-06-14T00:19:09;20.70;60.30
43099;DHT22;28715;51.988;6.020;2023-06-14T00:21:36;20.70;60.00
43099;DHT22;28715;51.988;6.020;2023-06-14T00:24:03;20.70;60.40
43099;DHT22;28715;51.988;6.020;2023-06-14T00:26:30;20.60;60.20
43099;DHT22;28715;51.988;6.020;2023-06-14T00:29:00;20.60;60.30
43099;DHT22;28715;51.988;6.020;2023-06-14T00:31:33;20.60;61.10
43099;DHT22;28715;51.988;6.020;2023-06-14T00:33:58;20.50;61.40
43099;DHT22;28715;51.988;6.020;2023-06-14T00:36:24;20.50;61.70
43099;DHT22;28715;51.988;6.020;2023-06-14T00:38:52;20.50;61.70
43099;DHT22;28715;51.988;6.020;2023-06-14T00:41:23;20.50;61.40
43099;DHT22;28715;51.988;6.020;2023-06-14T00:43:52;20.40;61.30
43099;DHT22;28715;51.988;6.020;2023-06-14T00:46:21;20.40;62.00
43099;DHT22;28715;51.988;6.020;2023-06-14T00:48:50;20.30;62.00
43099;DHT22;28715;51.988;6.020;2023-06-14T00:51:26;20.30;62.00
43099;DHT22;28715;51.988;6.020;2023-06-14T00:56:36;20.30;62.30
43099;DHT22;28715;51.988;6.020;2023-06-14T00:59:05;20.20;63.00
43099;DHT22;28715;51.988;6.020;2023-06-14T01:01:31;20.20;63.30
43099;DHT22;28715;51.988;6.020;2023-06-14T01:04:02;20.20;63.40
43099;DHT22;28715;51.988;6.020;2023-06-14T01:06:54;20.10;63.00
43099;DHT22;28715;51.988;6.020;2023-06-14T01:12:04;20.10;63.10
43099;DHT22;28715;51.988;6.020;2023-06-14T01:14:35;20.00;63.40
43099;DHT22;28715;51.988;6.020;2023-06-14T01:17:02;20.00;63.60
43099;DHT22;28715;51.988;6.020;2023-06-14T01:19:27;20.00;63.60
43099;DHT22;28715;51.988;6.020;2023-06-14T01:22:01;19.90;63.70
43099;DHT22;28715;51.988;6.020;2023-06-14T01:24:30;19.90;63.70
43099;DHT22;28715;51.988;6.020;2023-06-14T01:26:59;19.80;64.10
43099;DHT22;28715;51.988;6.020;2023-06-14T01:29:33;19.80;64.40
43099;DHT22;28715;51.988;6.020;2023-06-14T01:32:21;19.80;64.10
43099;DHT22;28715;51.988;6.020;2023-06-14T01:34:47;19.70;64.30
43099;DHT22;28715;51.988;6.020;2023-06-14T01:37:15;19.70;64.50
43099;DHT22;28715;51.988;6.020;2023-06-14T01:39:43;19.70;64.70
43099;DHT22;28715;51.988;6.020;2023-06-14T01:42:10;19.70;65.10
43099;DHT22;28715;51.988;6.020;2023-06-14T01:44:38;19.70;65.20
43099;DHT22;28715;51.988;6.020;2023-06-14T01:47:05;19.60;64.40
43099;DHT22;28715;51.988;6.020;2023-06-14T01:49:34;19.60;64.60
43099;DHT22;28715;51.988;6.020;2023-06-14T01:52:00;19.50;64.80
43099;DHT22;28715;51.988;6.020;2023-06-14T01:54:26;19.50;65.60
43099;DHT22;28715;51.988;6.020;2023-06-14T01:56:52;19.50;65.40
43099;DHT22;28715;51.988;6.020;2023-06-14T01:59:18;19.50;65.20
43099;DHT22;28715;51.988;6.020;2023-06-14T02:01:44;19.40;66.00
43099;DHT22;28715;51.988;6.020;2023-06-14T02:04:11;19.40;66.00
43099;DHT22;28715;51.988;6.020;2023-06-14T02:06:37;19.40;65.90
43099;DHT22;28715;51.988;6.020;2023-06-14T02:09:03;19.40;66.20
43099;DHT22;28715;51.988;6.020;2023-06-14T02:11:29;19.30;66.30
43099;DHT22;28715;51.988;6.020;2023-06-14T02:13:55;19.30;66.40
43099;DHT22;28715;51.988;6.020;2023-06-14T02:16:20;19.20;66.40
43099;DHT22;28715;51.988;6.020;2023-06-14T02:18:47;19.20;66.20
43099;DHT22;28715;51.988;6.020;2023-06-14T02:21:29;19.20;66.40
43099;DHT22;28715;51.988;6.020;2023-06-14T02:23:57;19.20;66.40
43099;DHT22;28715;51.988;6.020;2023-06-14T02:26:24;19.10;66.70
43099;DHT22;28715;51.988;6.020;2023-06-14T02:28:49;19.10;66.80
43099;DHT22;28715;51.988;6.020;2023-06-14T02:31:20;19.10;66.70
43099;DHT22;28715;51.988;6.020;2023-06-14T02:33:46;19.00;67.00
43099;DHT22;28715;51.988;6.020;2023-06-14T02:36:12;19.10;67.10
43099;DHT22;28715;51.988;6.020;2023-06-14T02:38:40;19.00;67.20
43099;DHT22;28715;51.988;6.020;2023-06-14T02:41:11;19.00;67.30
43099;DHT22;28715;51.988;6.020;2023-06-14T02:43:36;19.00;67.40
43099;DHT22;28715;51.988;6.020;2023-06-14T02:46:06;18.90;67.00
43099;DHT22;28715;51.988;6.020;2023-06-14T02:48:37;18.90;67.60
43099;DHT22;28715;51.988;6.020;2023-06-14T02:51:05;18.90;67.70
43099;DHT22;28715;51.988;6.020;2023-06-14T02:53:34;18.90;67.30
43099;DHT22;28715;51.988;6.020;2023-06-14T02:55:59;18.90;68.00
43099;DHT22;28715;51.988;6.020;2023-06-14T02:58:26;18.80;68.00
43099;DHT22;28715;51.988;6.020;2023-06-14T03:00:52;18.80;68.20
43099;DHT22;28715;51.988;6.020;2023-06-14T03:03:20;18.80;68.90
43099;DHT22;28715;51.988;6.020;2023-06-14T03:05:47;18.80;68.90
43099;DHT22;28715;51.988;6.020;2023-06-14T03:08:20;18.70;68.50
43099;DHT22;28715;51.988;6.020;2023-06-14T03:10:48;18.70;68.40
43099;DHT22;28715;51.988;6.020;2023-06-14T03:13:15;18.70;68.40
43099;DHT22;28715;51.988;6.020;2023-06-14T03:15:42;18.60;68.50
43099;DHT22;28715;51.988;6.020;2023-06-14T03:18:12;18.60;68.60
43099;DHT22;28715;51.988;6.020;2023-06-14T03:20:38;18.60;68.60
43099;DHT22;28715;51.988;6.020;2023-06-14T03:23:04;18.60;69.00
43099;DHT22;28715;51.988;6.020;2023-06-14T03:25:32;18.50;69.20
43099;DHT22;28715;51.988;6.020;2023-06-14T03:28:01;18.50;69.30
43099;DHT22;28715;51.988;6.020;2023-06-14T03:30:27;18.50;69.50
43099;DHT22;28715;51.988;6.020;2023-06-14T03:32:52;18.50;69.80
43099;DHT22;28715;51.988;6.020;2023-06-14T03:35:19;18.50;69.60
43099;DHT22;28715;51.988;6.020;2023-06-14T03:37:45;18.40;70.00
43099;DHT22;28715;51.988;6.020;2023-06-14T03:40:12;18.40;69.90
43099;DHT22;28715;51.988;6.020;2023-06-14T03:42:39;18.40;70.10
43099;DHT22;28715;51.988;6.020;2023-06-14T03:45:05;18.40;70.10
43099;DHT22;28715;51.988;6.020;2023-06-14T03:47:32;18.30;70.60
43099;DHT22;28715;51.988;6.020;2023-06-14T03:49:58;18.30;70.30
43099;DHT22;28715;51.988;6.020;2023-06-14T03:52:26;18.30;70.30
43099;DHT22;28715;51.988;6.020;2023-06-14T03:54:51;18.30;70.40
43099;DHT22;28715;51.988;6.020;2023-06-14T03:57:17;18.30;70.60
43099;DHT22;28715;51.988;6.020;2023-06-14T03:59:43;18.30;70.80
43099;DHT22;28715;51.988;6.020;2023-06-14T04:02:15;18.30;71.00
43099;DHT22;28715;51.988;6.020;2023-06-14T04:04:44;18.30;71.70
43099;DHT22;28715;51.988;6.020;2023-06-14T04:07:14;18.30;71.70
43099;DHT22;28715;51.988;6.020;2023-06-14T04:09:41;18.20;71.50
43099;DHT22;28715;51.988;6.020;2023-06-14T04:12:07;18.20;71.60
43099;DHT22;28715;51.988;6.020;2023-06-14T04:14:39;18.20;71.60
43099;DHT22;28715;51.988;6.020;2023-06-14T04:17:05;18.20;71.60
43099;DHT22;28715;51.988;6.020;2023-06-14T04:19:33;18.20;71.90
43099;DHT22;28715;51.988;6.020;2023-06-14T04:21:59;18.20;72.20
43099;DHT22;28715;51.988;6.020;2023-06-14T04:24:33;18.20;72.10
43099;DHT22;28715;51.988;6.020;2023-06-14T04:27:03;18.20;72.40
43099;DHT22;28715;51.988;6.020;2023-06-14T04:29:32;18.20;72.40
43099;DHT22;28715;51.988;6.020;2023-06-14T04:32:20;18.20;72.20
43099;DHT22;28715;51.988;6.020;2023-06-14T04:41:14;18.20;72.90
43099;DHT22;28715;51.988;6.020;2023-06-14T04:44:15;18.20;73.00
43099;DHT22;28715;51.988;6.020;2023-06-14T04:47:34;18.30;73.10
43099;DHT22;28715;51.988;6.020;2023-06-14T04:50:25;18.30;73.10
43099;DHT22;28715;51.988;6.020;2023-06-14T04:53:23;18.30;72.90
43099;DHT22;28715;51.988;6.020;2023-06-14T04:59:13;18.30;72.80
43099;DHT22;28715;51.988;6.020;2023-06-14T05:01:50;18.30;73.30
43099;DHT22;28715;51.988;6.020;2023-06-14T05:04:52;18.40;73.10
43099;DHT22;28715;51.988;6.020;2023-06-14T05:07:28;18.40;73.30
43099;DHT22;28715;51.988;6.020;2023-06-14T05:10:05;18.40;73.00
43099;DHT22;28715;51.988;6.020;2023-06-14T05:12:51;18.50;72.90
43099;DHT22;28715;51.988;6.020;2023-06-14T05:15:18;18.50;73.50
43099;DHT22;28715;51.988;6.020;2023-06-14T05:17:45;18.50;73.00
43099;DHT22;28715;51.988;6.020;2023-06-14T05:20:18;18.60;73.30
43099;DHT22;28715;51.988;6.020;2023-06-14T05:22:44;18.60;73.10
43099;DHT22;28715;51.988;6.020;2023-06-14T05:25:09;18.70;73.50
43099;DHT22;28715;51.988;6.020;2023-06-14T05:27:35;18.80;72.80
43099;DHT22;28715;51.988;6.020;2023-06-14T05:30:02;18.90;72.20
43099;DHT22;28715;51.988;6.020;2023-06-14T05:32:29;19.00;73.00
43099;DHT22;28715;51.988;6.020;2023-06-14T05:34:55;19.20;72.70
43099;DHT22;28715;51.988;6.020;2023-06-14T05:37:20;19.20;72.80
43099;DHT22;28715;51.988;6.020;2023-06-14T05:39:46;19.40;72.40
43099;DHT22;28715;51.988;6.020;2023-06-14T05:42:12;19.70;71.70
43099;DHT22;28715;51.988;6.020;2023-06-14T05:44:39;19.90;71.80
43099;DHT22;28715;51.988;6.020;2023-06-14T05:47:05;20.00;71.30
43099;DHT22;28715;51.988;6.020;2023-06-14T05:49:31;20.10;71.30
43099;DHT22;28715;51.988;6.020;2023-06-14T05:51:56;20.10;71.30
43099;DHT22;28715;51.988;6.020;2023-06-14T05:54:25;20.00;71.30
43099;DHT22;28715;51.988;6.020;2023-06-14T05:56:54;20.10;72.00
43099;DHT22;28715;51.988;6.020;2023-06-14T05:59:20;20.00;71.60
43099;DHT22;28715;51.988;6.020;2023-06-14T06:01:45;20.10;72.00
43099;DHT22;28715;51.988;6.020;2023-06-14T06:04:19;20.10;71.90
43099;DHT22;28715;51.988;6.020;2023-06-14T06:06:53;20.30;71.20
43099;DHT22;28715;51.988;6.020;2023-06-14T06:09:21;20.50;71.40
43099;DHT22;28715;51.988;6.020;2023-06-14T06:11:47;20.60;70.20
43099;DHT22;28715;51.988;6.020;2023-06-14T06:14:12;20.60;71.30
43099;DHT22;28715;51.988;6.020;2023-06-14T06:16:43;20.60;70.10
43099;DHT22;28715;51.988;6.020;2023-06-14T06:19:08;20.60;70.00
43099;DHT22;28715;51.988;6.020;2023-06-14T06:21:36;20.70;70.10
43099;DHT22;28715;51.988;6.020;2023-06-14T06:24:02;20.80;70.30
43099;DHT22;28715;51.988;6.020;2023-06-14T06:26:31;21.00;69.40
43099;DHT22;28715;51.988;6.020;2023-06-14T06:28:58;21.10;68.70
43099;DHT22;28715;51.988;6.020;2023-06-14T06:31:23;21.30;69.20
43099;DHT22;28715;51.988;6.020;2023-06-14T06:33:49;21.50;68.60
43099;DHT22;28715;51.988;6.020;2023-06-14T06:36:22;21.80;68.40
43099;DHT22;28715;51.988;6.020;2023-06-14T06:38:48;21.90;67.90
43099;DHT22;28715;51.988;6.020;2023-06-14T06:41:21;22.00;67.60
43099;DHT22;28715;51.988;6.020;2023-06-14T06:43:50;22.20;66.60
43099;DHT22;28715;51.988;6.020;2023-06-14T06:46:19;22.30;66.60
43099;DHT22;28715;51.988;6.020;2023-06-14T06:48:45;22.50;66.50
43099;DHT22;28715;51.988;6.020;2023-06-14T06:51:15;22.70;66.70
43099;DHT22;28715;51.988;6.020;2023-06-14T06:53:51;23.00;65.80
43099;DHT22;28715;51.988;6.020;2023-06-14T06:56:23;23.40;66.00
43099;DHT22;28715;51.988;6.020;2023-06-14T06:58:54;23.80;63.50
43099;DHT22;28715;51.988;6.020;2023-06-14T07:01:19;24.10;63.00
43099;DHT22;28715;51.988;6.020;2023-06-14T07:03:55;24.50;64.00
43099;DHT22;28715;51.988;6.020;2023-06-14T07:06:29;24.90;63.10
43099;DHT22;28715;51.988;6.020;2023-06-14T07:08:58;25.20;61.80
43099;DHT22;28715;51.988;6.020;2023-06-14T07:11:27;25.60;61.60
43099;DHT22;28715;51.988;6.020;2023-06-14T07:13:52;26.00;60.00
43099;DHT22;28715;51.988;6.020;2023-06-14T07:16:27;26.20;59.30
43099;DHT22;28715;51.988;6.020;2023-06-14T07:18:59;26.30;58.40
43099;DHT22;28715;51.988;6.020;2023-06-14T07:21:29;26.40;58.80
43099;DHT22;28715;51.988;6.020;2023-06-14T07:24:16;26.50;58.60
43099;DHT22;28715;51.988;6.020;2023-06-14T07:26:41;26.70;57.40
43099;DHT22;28715;51.988;6.020;2023-06-14T07:29:13;26.80;57.70
43099;DHT22;28715;51.988;6.020;2023-06-14T07:31:42;27.00;58.00
43099;DHT22;28715;51.988;6.020;2023-06-14T07:34:10;27.20;57.60
43099;DHT22;28715;51.988;6.020;2023-06-14T07:36:36;27.40;57.00
43099;DHT22;28715;51.988;6.020;2023-06-14T07:39:04;27.60;56.40
43099;DHT22;28715;51.988;6.020;2023-06-14T07:41:37;27.60;56.00
43099;DHT22;28715;51.988;6.020;2023-06-14T07:44:03;27.80;55.60
43099;DHT22;28715;51.988;6.020;2023-06-14T07:46:31;27.80;54.90
43099;DHT22;28715;51.988;6.020;2023-06-14T07:48:59;27.80;54.60
43099;DHT22;28715;51.988;6.020;2023-06-14T07:51:25;27.60;53.60
43099;DHT22;28715;51.988;6.020;2023-06-14T07:53:51;27.60;54.00
43099;DHT22;28715;51.988;6.020;2023-06-14T07:56:19;27.40;53.60
43099;DHT22;28715;51.988;6.020;2023-06-14T07:58:45;27.50;55.40
43099;DHT22;28715;51.988;6.020;2023-06-14T08:01:19;27.70;55.40
43099;DHT22;28715;51.988;6.020;2023-06-14T08:03:48;27.90;55.20
43099;DHT22;28715;51.988;6.020;2023-06-14T08:06:14;28.10;54.70
43099;DHT22;28715;51.988;6.020;2023-06-14T08:08:40;28.10;53.50
43099;DHT22;28715;51.988;6.020;2023-06-14T08:11:06;28.10;52.70
43099;DHT22;28715;51.988;6.020;2023-06-14T08:13:32;28.00;52.90
43099;DHT22;28715;51.988;6.020;2023-06-14T08:15:57;27.90;53.70
43099;DHT22;28715;51.988;6.020;2023-06-14T08:18:23;27.90;54.30
43099;DHT22;28715;51.988;6.020;2023-06-14T08:20:49;27.90;54.70
43099;DHT22;28715;51.988;6.020;2023-06-14T08:23:15;28.00;51.60
43099;DHT22;28715;51.988;6.020;2023-06-14T08:25:44;27.70;52.10
43099;DHT22;28715;51.988;6.020;2023-06-14T08:28:10;27.50;53.90
43099;DHT22;28715;51.988;6.020;2023-06-14T08:30:36;27.60;53.60
43099;DHT22;28715;51.988;6.020;2023-06-14T08:33:01;27.60;53.40
43099;DHT22;28715;51.988;6.020;2023-06-14T08:35:27;27.80;55.00
43099;DHT22;28715;51.988;6.020;2023-06-14T08:37:53;27.90;54.50
43099;DHT22;28715;51.988;6.020;2023-06-14T08:40:20;28.10;54.40
43099;DHT22;28715;51.988;6.020;2023-06-14T08:42:54;28.30;54.10
43099;DHT22;28715;51.988;6.020;2023-06-14T08:45:32;28.40;53.60
43099;DHT22;28715;51.988;6.020;2023-06-14T08:47:58;28.50;53.70
43099;DHT22;28715;51.988;6.020;2023-06-14T08:50:28;28.60;53.70
43099;DHT22;28715;51.988;6.020;2023-06-14T08:53:02;28.70;53.70
43099;DHT22;28715;51.988;6.020;2023-06-14T08:55:33;28.90;53.10
43099;DHT22;28715;51.988;6.020;2023-06-14T08:58:02;29.00;53.40
43099;DHT22;28715;51.988;6.020;2023-06-14T09:00:30;29.10;53.20
43099;DHT22;28715;51.988;6.020;2023-06-14T09:02:59;29.20;52.10
43099;DHT22;28715;51.988;6.020;2023-06-14T09:05:31;29.30;53.90
43099;DHT22;28715;51.988;6.020;2023-06-14T09:08:05;29.30;53.60
43099;DHT22;28715;51.988;6.020;2023-06-14T09:10:40;29.40;53.00
43099;DHT22;28715;51.988;6.020;2023-06-14T09:13:11;29.40;52.60
43099;DHT22;28715;51.988;6.020;2023-06-14T09:15:42;29.40;52.80
43099;DHT22;28715;51.988;6.020;2023-06-14T09:18:38;29.40;53.60
43099;DHT22;28715;51.988;6.020;2023-06-14T09:21:29;29.40;52.70
43099;DHT22;28715;51.988;6.020;2023-06-14T09:24:17;29.40;53.20
43099;DHT22;28715;51.988;6.020;2023-06-14T09:27:14;29.60;53.80
43099;DHT22;28715;51.988;6.020;2023-06-14T09:30:03;29.80;54.00
43099;DHT22;28715;51.988;6.020;2023-06-14T09:32:45;29.80;52.40
43099;DHT22;28715;51.988;6.020;2023-06-14T09:35:20;29.80;52.70
43099;DHT22;28715;51.988;6.020;2023-06-14T09:37:49;29.80;52.60
43099;DHT22;28715;51.988;6.020;2023-06-14T09:47:28;29.60;51.90
43099;DHT22;28715;51.988;6.020;2023-06-14T09:50:29;29.50;52.50
43099;DHT22;28715;51.988;6.020;2023-06-14T09:53:06;29.50;53.10
43099;DHT22;28715;51.988;6.020;2023-06-14T09:55:35;29.50;51.80
43099;DHT22;28715;51.988;6.020;2023-06-14T09:58:05;29.40;52.40
43099;DHT22;28715;51.988;6.020;2023-06-14T10:00:37;29.40;52.20
43099;DHT22;28715;51.988;6.020;2023-06-14T10:06:43;29.20;51.70
43099;DHT22;28715;51.988;6.020;2023-06-14T10:09:22;29.10;52.80
43099;DHT22;28715;51.988;6.020;2023-06-14T10:11:51;29.10;53.70
43099;DHT22;28715;51.988;6.020;2023-06-14T10:14:49;29.10;53.50
43099;DHT22;28715;51.988;6.020;2023-06-14T10:21:21;28.90;53.80
43099;DHT22;28715;51.988;6.020;2023-06-14T10:24:03;28.80;52.70
43099;DHT22;28715;51.988;6.020;2023-06-14T10:26:53;28.60;52.20
43099;DHT22;28715;51.988;6.020;2023-06-14T10:29:22;28.40;53.30
43099;DHT22;28715;51.988;6.020;2023-06-14T10:31:53;28.40;54.00
43099;DHT22;28715;51.988;6.020;2023-06-14T10:34:27;28.40;52.80
43099;DHT22;28715;51.988;6.020;2023-06-14T10:37:34;28.30;52.80
43099;DHT22;28715;51.988;6.020;2023-06-14T10:40:33;28.20;54.00
43099;DHT22;28715;51.988;6.020;2023-06-14T10:46:28;28.20;55.00
43099;DHT22;28715;51.988;6.020;2023-06-14T10:48:59;28.20;52.70
43099;DHT22;28715;51.988;6.020;2023-06-14T10:55:43;28.10;53.40
43099;DHT22;28715;51.988;6.020;2023-06-14T10:58:31;28.10;52.80
43099;DHT22;28715;51.988;6.020;2023-06-14T11:05:08;28.00;51.60
43099;DHT22;28715;51.988;6.020;2023-06-14T11:10:50;27.90;53.00
43099;DHT22;28715;51.988;6.020;2023-06-14T11:13:36;27.80;52.70
43099;DHT22;28715;51.988;6.020;2023-06-14T11:16:10;27.80;55.40
43099;DHT22;28715;51.988;6.020;2023-06-14T11:18:51;27.90;54.00
43099;DHT22;28715;51.988;6.020;2023-06-14T11:21:20;28.00;53.60
43099;DHT22;28715;51.988;6.020;2023-06-14T11:23:52;28.10;54.20
43099;DHT22;28715;51.988;6.020;2023-06-14T11:26:46;28.20;53.90
43099;DHT22;28715;51.988;6.020;2023-06-14T11:29:15;28.20;53.60
43099;DHT22;28715;51.988;6.020;2023-06-14T11:31:43;28.20;53.50
43099;DHT22;28715;51.988;6.020;2023-06-14T11:34:22;28.30;54.90
43099;DHT22;28715;51.988;6.020;2023-06-14T11:36:47;28.40;53.70
43099;DHT22;28715;51.988;6.020;2023-06-14T11:39:15;28.30;52.40
43099;DHT22;28715;51.988;6.020;2023-06-14T11:41:44;28.30;53.10
43099;DHT22;28715;51.988;6.020;2023-06-14T11:44:10;28.30;53.90
43099;DHT22;28715;51.988;6.020;2023-06-14T11:46:40;28.30;53.90
43099;DHT22;28715;51.988;6.020;2023-06-14T11:49:10;28.40;53.30
43099;DHT22;28715;51.988;6.020;2023-06-14T11:51:42;28.40;52.90
43099;DHT22;28715;51.988;6.020;2023-06-14T11:54:42;28.40;51.80
43099;DHT22;28715;51.988;6.020;2023-06-14T11:57:08;28.50;54.10
43099;DHT22;28715;51.988;6.020;2023-06-14T11:59:59;28.50;53.70
43099;DHT22;28715;51.988;6.020;2023-06-14T12:02:25;28.50;53.10
43099;DHT22;28715;51.988;6.020;2023-06-14T12:04:53;28.50;54.50
43099;DHT22;28715;51.988;6.020;2023-06-14T12:07:19;28.50;53.80
43099;DHT22;28715;51.988;6.020;2023-06-14T12:12:25;28.50;54.80
43099;DHT22;28715;51.988;6.020;2023-06-14T12:14:59;28.60;54.10
43099;DHT22;28715;51.988;6.020;2023-06-14T12:17:31;28.60;54.30
43099;DHT22;28715;51.988;6.020;2023-06-14T12:19:57;28.50;55.10
43099;DHT22;28715;51.988;6.020;2023-06-14T12:22:23;28.60;53.80
43099;DHT22;28715;51.988;6.020;2023-06-14T12:24:51;28.60;54.70
43099;DHT22;28715;51.988;6.020;2023-06-14T12:27:17;28.70;53.80
43099;DHT22;28715;51.988;6.020;2023-06-14T12:29:46;28.60;53.30
43099;DHT22;28715;51.988;6.020;2023-06-14T12:32:23;28.60;53.90
43099;DHT22;28715;51.988;6.020;2023-06-14T12:34:56;28.60;53.80
43099;DHT22;28715;51.988;6.020;2023-06-14T12:37:43;28.70;54.50
43099;DHT22;28715;51.988;6.020;2023-06-14T12:40:27;28.70;53.90
43099;DHT22;28715;51.988;6.020;2023-06-14T12:43:01;28.70;53.80
43099;DHT22;28715;51.988;6.020;2023-06-14T12:46:04;28.70;54.00
43099;DHT22;28715;51.988;6.020;2023-06-14T12:48:44;28.60;54.60
43099;DHT22;28715;51.988;6.020;2023-06-14T12:58:18;28.80;55.00
43099;DHT22;28715;51.988;6.020;2023-06-14T13:08:35;29.00;53.80
43099;DHT22;28715;51.988;6.020;2023-06-14T13:11:41;28.80;53.10
43099;DHT22;28715;51.988;6.020;2023-06-14T13:14:18;28.80;52.10
43099;DHT22;28715;51.988;6.020;2023-06-14T13:26:48;28.60;53.80
43099;DHT22;28715;51.988;6.020;2023-06-14T13:33:13;28.70;51.40
43099;DHT22;28715;51.988;6.020;2023-06-14T13:35:52;28.70;52.80
43099;DHT22;28715;51.988;6.020;2023-06-14T13:38:27;28.70;52.50
43099;DHT22;28715;51.988;6.020;2023-06-14T13:41:22;28.70;50.00
43099;DHT22;28715;51.988;6.020;2023-06-14T13:58:05;28.90;53.20
43099;DHT22;28715;51.988;6.020;2023-06-14T14:00:29;28.80;51.70
43099;DHT22;28715;51.988;6.020;2023-06-14T14:06:07;28.70;52.30
43099;DHT22;28715;51.988;6.020;2023-06-14T14:08:51;28.80;52.50
43099;DHT22;28715;51.988;6.020;2023-06-14T14:18:33;28.80;51.50
43099;DHT22;28715;51.988;6.020;2023-06-14T14:21:36;28.80;52.50
43099;DHT22;28715;51.988;6.020;2023-06-14T14:24:11;28.80;51.70
43099;DHT22;28715;51.988;6.020;2023-06-14T14:26:40;28.80;52.30
43099;DHT22;28715;51.988;6.020;2023-06-14T14:29:15;28.80;51.10
43099;DHT22;28715;51.988;6.020;2023-06-14T14:31:45;28.60;50.80
43099;DHT22;28715;51.988;6.020;2023-06-14T14:34:11;28.60;52.20
43099;DHT22;28715;51.988;6.020;2023-06-14T14:36:39;28.50;51.40
43099;DHT22;28715;51.988;6.020;2023-06-14T14:39:10;28.50;52.80
43099;DHT22;28715;51.988;6.020;2023-06-14T14:41:50;28.50;51.30
43099;DHT22;28715;51.988;6.020;2023-06-14T14:44:24;28.60;52.40
43099;DHT22;28715;51.988;6.020;2023-06-14T14:46:55;28.60;53.30
43099;DHT22;28715;51.988;6.020;2023-06-14T14:49:21;28.60;52.90
43099;DHT22;28715;51.988;6.020;2023-06-14T14:51:55;28.60;52.10
43099;DHT22;28715;51.988;6.020;2023-06-14T14:54:26;28.60;52.20
43099;DHT22;28715;51.988;6.020;2023-06-14T14:56:57;28.60;52.10
43099;DHT22;28715;51.988;6.020;2023-06-14T14:59:22;28.60;52.50
43099;DHT22;28715;51.988;6.020;2023-06-14T15:01:48;28.50;52.80
43099;DHT22;28715;51.988;6.020;2023-06-14T15:04:16;28.50;53.50
43099;DHT22;28715;51.988;6.020;2023-06-14T15:06:41;28.40;53.80
43099;DHT22;28715;51.988;6.020;2023-06-14T15:09:07;28.50;53.20
43099;DHT22;28715;51.988;6.020;2023-06-14T15:11:33;28.50;53.60
43099;DHT22;28715;51.988;6.020;2023-06-14T15:14:07;28.50;52.50
43099;DHT22;28715;51.988;6.020;2023-06-14T15:16:41;28.40;52.00
43099;DHT22;28715;51.988;6.020;2023-06-14T15:19:17;28.30;50.70
43099;DHT22;28715;51.988;6.020;2023-06-14T15:21:56;28.10;52.20
43099;DHT22;28715;51.988;6.020;2023-06-14T15:24:25;28.20;52.60
43099;DHT22;28715;51.988;6.020;2023-06-14T15:26:52;28.20;53.30
43099;DHT22;28715;51.988;6.020;2023-06-14T15:29:20;28.20;53.20
43099;DHT22;28715;51.988;6.020;2023-06-14T15:31:46;28.30;54.70
43099;DHT22;28715;51.988;6.020;2023-06-14T15:34:13;28.20;54.10
43099;DHT22;28715;51.988;6.020;2023-06-14T15:36:38;28.20;54.30
43099;DHT22;28715;51.988;6.020;2023-06-14T15:39:04;28.20;54.00
43099;DHT22;28715;51.988;6.020;2023-06-14T15:41:30;28.10;55.10
43099;DHT22;28715;51.988;6.020;2023-06-14T15:43:58;28.00;53.40
43099;DHT22;28715;51.988;6.020;2023-06-14T15:46:23;27.80;54.50
43099;DHT22;28715;51.988;6.020;2023-06-14T15:48:49;27.80;54.30
43099;DHT22;28715;51.988;6.020;2023-06-14T15:51:32;27.70;54.80
43099;DHT22;28715;51.988;6.020;2023-06-14T15:54:10;27.60;54.40
43099;DHT22;28715;51.988;6.020;2023-06-14T15:57:04;27.40;54.20
43099;DHT22;28715;51.988;6.020;2023-06-14T16:00:21;27.40;53.90
43099;DHT22;28715;51.988;6.020;2023-06-14T16:09:43;27.40;55.00
43099;DHT22;28715;51.988;6.020;2023-06-14T16:12:09;27.30;55.20
43099;DHT22;28715;51.988;6.020;2023-06-14T16:14:35;27.20;55.90
43099;DHT22;28715;51.988;6.020;2023-06-14T16:17:00;27.20;54.90
43099;DHT22;28715;51.988;6.020;2023-06-14T16:19:26;27.20;54.90
43099;DHT22;28715;51.988;6.020;2023-06-14T16:21:52;27.10;54.80
43099;DHT22;28715;51.988;6.020;2023-06-14T16:24:17;27.10;55.10
43099;DHT22;28715;51.988;6.020;2023-06-14T16:26:43;27.10;56.00
43099;DHT22;28715;51.988;6.020;2023-06-14T16:29:09;27.10;55.40
43099;DHT22;28715;51.988;6.020;2023-06-14T16:31:37;27.10;55.40
43099;DHT22;28715;51.988;6.020;2023-06-14T16:34:12;27.00;52.60
43099;DHT22;28715;51.988;6.020;2023-06-14T16:36:40;27.00;54.10
43099;DHT22;28715;51.988;6.020;2023-06-14T16:39:08;26.90;55.00
43099;DHT22;28715;51.988;6.020;2023-06-14T16:41:39;26.90;55.20
43099;DHT22;28715;51.988;6.020;2023-06-14T16:44:05;26.90;56.00
43099;DHT22;28715;51.988;6.020;2023-06-14T16:46:32;26.90;55.90
43099;DHT22;28715;51.988;6.020;2023-06-14T16:48:58;26.80;54.70
43099;DHT22;28715;51.988;6.020;2023-06-14T16:51:24;26.70;55.20
43099;DHT22;28715;51.988;6.020;2023-06-14T16:53:51;26.70;55.50
43099;DHT22;28715;51.988;6.020;2023-06-14T16:56:23;26.60;54.80
43099;DHT22;28715;51.988;6.020;2023-06-14T16:58:57;26.60;56.10
43099;DHT22;28715;51.988;6.020;2023-06-14T17:01:26;26.50;55.90
43099;DHT22;28715;51.988;6.020;2023-06-14T17:03:57;26.40;56.50
43099;DHT22;28715;51.988;6.020;2023-06-14T17:06:34;26.40;56.60
43099;DHT22;28715;51.988;6.020;2023-06-14T17:09:09;26.40;55.80
43099;DHT22;28715;51.988;6.020;2023-06-14T17:11:38;26.40;56.00
43099;DHT22;28715;51.988;6.020;2023-06-14T17:14:22;26.40;56.70
43099;DHT22;28715;51.988;6.020;2023-06-14T17:16:53;26.30;56.80
43099;DHT22;28715;51.988;6.020;2023-06-14T17:19:21;26.30;56.50
43099;DHT22;28715;51.988;6.020;2023-06-14T17:22:05;26.20;56.10
43099;DHT22;28715;51.988;6.020;2023-06-14T17:24:31;26.20;56.30
43099;DHT22;28715;51.988;6.020;2023-06-14T17:26:57;26.10;55.50
43099;DHT22;28715;51.988;6.020;2023-06-14T17:29:23;26.00;55.30
43099;DHT22;28715;51.988;6.020;2023-06-14T17:31:52;26.00;56.40
43099;DHT22;28715;51.988;6.020;2023-06-14T17:34:17;25.90;56.30
43099;DHT22;28715;51.988;6.020;2023-06-14T17:36:43;25.90;57.50
43099;DHT22;28715;51.988;6.020;2023-06-14T17:39:09;25.90;58.00
43099;DHT22;28715;51.988;6.020;2023-06-14T17:41:35;25.90;57.20
43099;DHT22;28715;51.988;6.020;2023-06-14T17:44:00;25.80;56.70
43099;DHT22;28715;51.988;6.020;2023-06-14T17:46:26;25.70;55.60